Time;durP1;ratioP1;P1;durP2;ratioP2;P2;SDS_P1;SDS_P2;PMS_P1;PMS_P2;Temp;Humidity;BMP_temperature;BMP_pressure;BME280_temperature;BME280_humidity;BME280_pressure;Samples;Min_cycle;Max_cycle;Signal;HPM_P1;HPM_P2
2022/10/23 00:01:16;;;;;;;6.88;3.22;;;;;;;15.02;70.42;101318.34;5109542;28;20055;-62
2022/10/23 00:03:44;;;;;;;7.70;3.47;;;;;;;15.02;70.44;101328.34;5108504;28;20127;-62
2022/10/23 00:06:13;;;;;;;9.10;3.13;;;;;;;15.02;70.41;101320.22;5108004;28;20043;-62
2022/10/23 00:08:41;;;;;;;7.95;3.15;;;;;;;15.01;70.26;101322.09;5113047;28;20119;-62
2022/10/23 00:11:10;;;;;;;8.18;3.30;;;;;;;15.01;70.33;101315.88;5119153;28;20051;-62
2022/10/23 00:13:38;;;;;;;7.93;3.42;;;;;;;15.00;70.42;101306.94;5110751;28;20055;-62
2022/10/23 00:16:07;;;;;;;6.93;3.20;;;;;;;14.99;70.41;101313.41;5107031;28;20067;-62
2022/10/23 00:18:37;;;;;;;8.20;3.30;;;;;;;14.98;70.33;101315.28;5111393;28;20048;-62
2022/10/23 00:21:06;;;;;;;8.23;3.40;;;;;;;14.97;70.44;101312.81;5109752;28;20073;-62
2022/10/23 00:23:34;;;;;;;5.85;3.70;;;;;;;14.97;70.26;101310.94;5107561;28;20048;-62
2022/10/23 00:26:02;;;;;;;12.13;3.55;;;;;;;14.96;70.43;101309.28;5108368;28;20044;-62
2022/10/23 00:28:30;;;;;;;6.13;2.95;;;;;;;14.96;70.24;101301.16;5111036;28;20044;-62
2022/10/23 00:30:57;;;;;;;7.53;2.83;;;;;;;14.95;70.44;101298.69;5114157;28;20054;-62
2022/10/23 00:33:25;;;;;;;7.38;3.92;;;;;;;14.94;70.49;101307.88;5111769;28;20057;-62
2022/10/23 00:35:54;;;;;;;7.47;3.13;;;;;;;14.93;70.43;101304.34;5116287;28;20519;-62
2022/10/23 00:38:22;;;;;;;7.75;3.38;;;;;;;14.91;70.53;101309.19;5109291;28;20048;-62
2022/10/23 00:40:50;;;;;;;10.93;4.72;;;;;;;14.92;70.37;101312.72;5106598;28;20055;-62
2022/10/23 00:43:19;;;;;;;8.93;3.45;;;;;;;14.88;70.42;101301.53;5109987;28;20048;-62
2022/10/23 00:45:48;;;;;;;9.48;3.33;;;;;;;14.86;70.36;101297.44;5115985;28;20044;-62
2022/10/23 00:48:16;;;;;;;7.15;3.70;;;;;;;14.86;70.47;101306.38;5118538;28;20490;-62
2022/10/23 00:50:44;;;;;;;6.97;3.30;;;;;;;14.89;70.31;101302.38;5110220;28;20048;-61
2022/10/23 00:53:14;;;;;;;9.70;3.30;;;;;;;14.89;70.24;101305.06;5114245;28;20051;-62
2022/10/23 00:55:45;;;;;;;7.25;2.83;;;;;;;14.87;70.44;101301.78;5108141;28;20048;-62
2022/10/23 00:58:13;;;;;;;8.07;3.45;;;;;;;14.87;70.51;101307.19;5118907;28;20124;-62
2022/10/23 01:00:45;;;;;;;7.80;3.30;;;;;;;14.86;70.42;101306.38;5107108;28;20048;-62
2022/10/23 01:03:14;;;;;;;7.97;3.30;;;;;;;14.85;70.46;101299.31;5107021;28;20056;-62
2022/10/23 01:05:49;;;;;;;7.78;3.50;;;;;;;14.81;70.17;101291.91;5117100;28;20143;-61
2022/10/23 01:08:27;;;;;;;7.60;3.20;;;;;;;14.83;70.42;101289.78;5110794;28;20044;-61
2022/10/23 01:11:07;;;;;;;8.10;3.28;;;;;;;14.83;70.57;101295.19;5121212;28;20055;-61
2022/10/23 01:13:43;;;;;;;7.15;3.28;;;;;;;14.82;70.43;101288.97;5106850;28;20056;-62
2022/10/23 01:16:16;;;;;;;7.97;2.55;;;;;;;14.81;70.39;101294.63;5105229;28;20059;-61
2022/10/23 01:18:49;;;;;;;8.82;3.40;;;;;;;14.80;70.46;101291.09;5110598;28;20044;-63
2022/10/23 01:21:22;;;;;;;14.13;3.47;;;;;;;14.81;70.52;101286.50;5116367;28;20058;-64
2022/10/23 01:24:22;;;;;;;6.45;3.22;;;;;;;14.79;70.26;101280.50;5115772;28;20048;-63
2022/10/23 01:27:03;;;;;;;8.63;3.55;;;;;;;14.79;70.32;101267.81;5094948;28;20905;-63
2022/10/23 01:29:38;;;;;;;8.23;2.90;;;;;;;14.79;70.22;101270.50;5117086;28;20440;-61
2022/10/23 01:32:11;;;;;;;7.32;2.85;;;;;;;14.79;69.96;101267.81;5110081;28;20048;-62
2022/10/23 01:34:46;;;;;;;6.80;2.88;;;;;;;14.79;70.29;101267.81;5116634;28;20074;-62
2022/10/23 01:37:18;;;;;;;6.47;3.28;;;;;;;14.75;69.94;101258.50;5111140;28;20047;-61
2022/10/23 01:39:50;;;;;;;6.03;3.10;;;;;;;14.79;70.33;101264.28;5108274;28;20048;-61
2022/10/23 01:42:25;;;;;;;8.23;3.17;;;;;;;14.78;69.96;101263.44;5105142;28;20044;-63
2022/10/23 01:44:59;;;;;;;5.15;3.05;;;;;;;14.77;70.00;101269.09;5107581;28;20039;-62
2022/10/23 01:47:31;;;;;;;8.00;3.20;;;;;;;14.77;69.98;101255.56;5105496;28;20062;-62
2022/10/23 01:49:59;;;;;;;8.48;3.22;;;;;;;14.76;69.89;101249.34;5110071;28;20043;-62
2022/10/23 01:52:27;;;;;;;10.45;3.65;;;;;;;14.76;69.92;101251.22;5109385;28;20059;-62
2022/10/23 01:54:59;;;;;;;9.38;3.40;;;;;;;14.76;70.05;101254.75;5116810;28;20048;-62
2022/10/23 01:57:31;;;;;;;8.50;3.22;;;;;;;14.75;70.26;101255.81;5105716;28;20052;-62
2022/10/23 02:00:03;;;;;;;5.88;2.97;;;;;;;14.74;69.95;101256.03;5112702;28;20044;-62
2022/10/23 02:02:33;;;;;;;7.07;3.13;;;;;;;14.73;70.39;101246.28;5108558;28;20458;-62
2022/10/23 02:05:06;;;;;;;7.40;2.95;;;;;;;14.74;70.10;101254.16;5113344;28;20113;-62
2022/10/23 02:07:35;;;;;;;7.50;3.55;;;;;;;14.72;70.00;101253.59;5107242;28;20062;-62
2022/10/23 02:10:04;;;;;;;5.95;3.00;;;;;;;14.69;70.21;101245.94;5106252;28;20492;-62
2022/10/23 02:12:41;;;;;;;7.18;2.75;;;;;;;14.71;70.24;101248.41;5112230;28;20047;-62
2022/10/23 02:15:17;;;;;;;5.85;3.05;;;;;;;14.69;70.03;101239.72;5112075;28;20043;-63
2022/10/23 02:17:51;;;;;;;6.38;3.00;;;;;;;14.68;70.13;101243.47;5118216;28;20063;-62
2022/10/23 02:20:23;;;;;;;8.18;2.95;;;;;;;14.67;70.19;101237.25;5105330;28;20048;-61
2022/10/23 02:22:59;;;;;;;6.10;2.88;;;;;;;14.66;70.19;101246.41;5118153;28;20050;-62
2022/10/23 02:25:33;;;;;;;5.50;3.33;;;;;;;14.62;70.10;101235.25;5105659;28;20056;-62
2022/10/23 02:28:06;;;;;;;6.93;3.30;;;;;;;14.63;70.15;101238.78;5105446;28;20058;-62
2022/10/23 02:30:38;;;;;;;4.80;2.85;;;;;;;14.64;69.95;101237.72;5104347;28;20048;-62
2022/10/23 02:33:08;;;;;;;6.07;3.00;;;;;;;14.64;70.38;101235.03;5110815;28;20058;-62
2022/10/23 02:35:36;;;;;;;8.93;3.35;;;;;;;14.63;70.12;101228.78;5105281;28;20070;-62
2022/10/23 02:38:24;;;;;;;10.35;3.47;;;;;;;14.62;70.12;101221.72;5105244;28;20052;-64
2022/10/23 02:40:53;;;;;;;5.85;2.65;;;;;;;14.62;70.28;101210.09;5105764;28;20044;-62
2022/10/23 02:43:27;;;;;;;10.10;3.22;;;;;;;14.58;70.18;101198.09;5116544;28;20055;-62
2022/10/23 02:46:01;;;;;;;5.95;2.67;;;;;;;14.61;70.23;101192.22;5111452;28;20060;-62
2022/10/23 02:48:39;;;;;;;6.78;3.00;;;;;;;14.59;70.33;101184.34;5109037;28;20048;-62
2022/10/23 02:51:14;;;;;;;7.93;3.22;;;;;;;14.59;70.65;101183.50;5104789;28;20065;-62
2022/10/23 02:53:52;;;;;;;7.97;2.97;;;;;;;14.59;70.41;101175.41;5107710;28;20051;-62
2022/10/23 02:56:27;;;;;;;7.22;2.90;;;;;;;14.57;70.21;101154.00;5106214;28;20048;-62
2022/10/23 02:59:03;;;;;;;8.52;3.13;;;;;;;14.56;70.20;101155.06;5113337;28;20048;-61
2022/10/23 03:01:39;;;;;;;6.32;2.70;;;;;;;14.57;70.28;101156.72;5112367;28;20048;-61
2022/10/23 03:04:09;;;;;;;7.07;2.95;;;;;;;14.55;70.27;101147.19;5118762;28;20048;-61
2022/10/23 03:06:37;;;;;;;9.98;3.53;;;;;;;14.54;70.37;101146.38;5119571;28;20047;-61
2022/10/23 03:09:07;;;;;;;6.10;3.40;;;;;;;14.55;70.20;101147.19;5107301;28;20501;-61
2022/10/23 03:11:35;;;;;;;7.32;2.63;;;;;;;14.57;70.19;101147.78;5106115;28;20044;-61
2022/10/23 03:14:03;;;;;;;10.48;3.72;;;;;;;14.55;70.23;101145.31;5106579;28;20501;-61
2022/10/23 03:16:31;;;;;;;7.60;2.92;;;;;;;14.55;70.46;101136.38;5112235;28;20052;-61
2022/10/23 03:19:00;;;;;;;7.25;2.95;;;;;;;14.56;70.42;101136.13;5104694;28;20044;-61
2022/10/23 03:21:27;;;;;;;8.02;2.83;;;;;;;14.57;70.35;101134.25;5107966;28;20143;-61
2022/10/23 03:23:55;;;;;;;8.00;2.78;;;;;;;14.54;70.38;101127.44;5110885;28;20039;-61
2022/10/23 03:26:23;;;;;;;5.45;2.60;;;;;;;14.54;70.54;101123.91;5119061;28;20054;-62
2022/10/23 03:28:50;;;;;;;6.57;2.50;;;;;;;14.54;70.51;101123.91;5112483;28;20047;-61
2022/10/23 03:31:18;;;;;;;5.60;2.97;;;;;;;14.53;70.21;101122.28;5115600;28;20056;-61
2022/10/23 03:33:46;;;;;;;4.63;2.60;;;;;;;14.53;70.44;101123.09;5117116;28;20051;-61
2022/10/23 03:36:15;;;;;;;7.65;2.72;;;;;;;14.54;70.55;101115.81;5116125;28;20052;-62
2022/10/23 03:38:42;;;;;;;7.25;2.63;;;;;;;14.53;70.30;101119.56;5104464;28;20050;-62
2022/10/23 03:41:10;;;;;;;4.72;2.47;;;;;;;14.52;70.44;101118.75;5105966;28;20416;-61
2022/10/23 03:43:38;;;;;;;6.38;2.80;;;;;;;14.53;70.55;101114.16;5113748;28;20044;-61
2022/10/23 03:46:08;;;;;;;5.53;3.03;;;;;;;14.52;70.62;101105.22;5108124;28;20044;-61
2022/10/23 03:48:37;;;;;;;7.60;3.28;;;;;;;14.53;70.33;101114.97;5117422;28;20045;-62
2022/10/23 03:51:05;;;;;;;8.75;2.60;;;;;;;14.52;70.27;101109.81;5112855;28;20047;-62
2022/10/23 03:53:34;;;;;;;4.80;2.70;;;;;;;14.53;70.56;101103.34;5110144;28;20040;-62
2022/10/23 03:56:02;;;;;;;5.50;2.72;;;;;;;14.52;70.58;101102.50;5111841;28;20048;-61
2022/10/23 03:58:31;;;;;;;5.75;2.90;;;;;;;14.50;70.46;101095.72;5121846;28;20111;-61
2022/10/23 04:00:59;;;;;;;6.22;3.00;;;;;;;14.49;70.71;101086.78;5112876;28;20052;-62
2022/10/23 04:03:26;;;;;;;6.22;2.88;;;;;;;14.50;70.67;101076.78;5116427;28;20337;-62
2022/10/23 04:05:54;;;;;;;7.05;2.78;;;;;;;14.49;70.47;101088.66;5113781;28;20052;-62
2022/10/23 04:08:22;;;;;;;7.70;2.50;;;;;;;14.48;70.74;101079.72;5111764;28;20055;-63
2022/10/23 04:10:51;;;;;;;8.50;3.15;;;;;;;14.48;70.50;101076.19;5107123;28;20040;-62
2022/10/23 04:13:19;;;;;;;6.53;2.50;;;;;;;14.47;70.56;101067.25;5107628;28;20048;-63
2022/10/23 04:15:50;;;;;;;5.20;2.53;;;;;;;14.46;70.71;101064.81;5109503;28;20040;-62
2022/10/23 04:18:18;;;;;;;6.65;2.47;;;;;;;14.45;70.58;101060.44;5119583;28;20052;-62
2022/10/23 04:20:48;;;;;;;6.82;2.60;;;;;;;14.45;70.63;101069.38;5114470;28;20043;-61
2022/10/23 04:23:16;;;;;;;5.88;2.67;;;;;;;14.44;70.79;101077.75;5110629;28;20055;-61
2022/10/23 04:25:43;;;;;;;7.55;2.85;;;;;;;14.44;70.71;101070.44;5117880;28;20062;-62
2022/10/23 04:28:13;;;;;;;4.65;2.83;;;;;;;14.43;70.48;101074.22;5116479;28;20052;-61
2022/10/23 04:30:41;;;;;;;7.05;2.97;;;;;;;14.44;70.60;101078.56;5108314;28;20052;-62
2022/10/23 04:33:08;;;;;;;7.15;2.22;;;;;;;14.43;70.86;101073.41;5116953;28;20052;-62
2022/10/23 04:35:36;;;;;;;6.43;2.80;;;;;;;14.44;70.51;101075.84;5109547;28;20732;-62
2022/10/23 04:38:04;;;;;;;6.00;2.80;;;;;;;14.43;70.95;101073.41;5107344;28;20146;-62
2022/10/23 04:40:31;;;;;;;7.20;2.47;;;;;;;14.42;70.58;101077.97;5109988;28;20050;-61
2022/10/23 04:42:59;;;;;;;6.60;2.60;;;;;;;14.43;70.85;101073.41;5120546;28;20051;-61
2022/10/23 04:45:28;;;;;;;5.35;2.55;;;;;;;14.42;70.84;101072.56;5121870;28;20052;-62
2022/10/23 04:47:56;;;;;;;6.10;2.55;;;;;;;14.42;70.56;101074.47;5109376;28;20531;-63
2022/10/23 04:50:24;;;;;;;4.93;2.70;;;;;;;14.40;70.73;101065.72;5112603;28;20058;-62
2022/10/23 04:52:54;;;;;;;7.10;2.50;;;;;;;14.41;70.69;101065.50;5108599;28;20048;-63
2022/10/23 04:55:21;;;;;;;7.82;3.10;;;;;;;14.40;70.84;101053.03;5111723;28;20143;-62
2022/10/23 04:57:49;;;;;;;8.43;3.00;;;;;;;14.41;70.80;101059.25;5116587;28;20048;-62
2022/10/23 05:00:17;;;;;;;9.57;2.90;;;;;;;14.40;70.80;101057.63;5114032;28;20502;-61
2022/10/23 05:02:46;;;;;;;6.40;2.92;;;;;;;14.41;70.36;101056.56;4756986;28;10000069;-62
2022/10/23 05:05:14;;;;;;;4.53;2.50;;;;;;;14.40;70.76;101063.84;5106152;28;20047;-62
2022/10/23 05:07:42;;;;;;;5.05;2.80;;;;;;;14.40;70.61;101055.75;5111422;28;20048;-62
2022/10/23 05:10:10;;;;;;;4.55;2.65;;;;;;;14.40;70.75;101050.34;5118510;28;20735;-62
2022/10/23 05:12:38;;;;;;;6.38;2.67;;;;;;;14.41;70.79;101056.56;5108560;28;20564;-61
2022/10/23 05:15:07;;;;;;;10.10;3.30;;;;;;;14.40;70.87;101044.09;5116974;28;20513;-62
2022/10/23 05:17:36;;;;;;;8.05;2.97;;;;;;;14.40;70.92;101042.22;5103624;28;20051;-62
2022/10/23 05:20:11;;;;;;;4.63;2.78;;;;;;;14.40;70.84;101044.94;5104440;28;20066;-62
2022/10/23 05:22:41;;;;;;;4.75;2.67;;;;;;;14.39;70.70;101040.56;5113004;28;20056;-62
2022/10/23 05:25:10;;;;;;;6.57;3.10;;;;;;;14.40;70.49;101038.69;5117527;28;20059;-63
2022/10/23 05:27:37;;;;;;;4.78;2.90;;;;;;;14.41;70.56;101043.03;5116126;28;20052;-62
2022/10/23 05:30:06;;;;;;;4.75;2.42;;;;;;;14.41;70.55;101040.34;5106208;28;20043;-62
2022/10/23 05:32:35;;;;;;;4.63;2.80;;;;;;;14.40;70.79;101039.50;5103797;28;20040;-63
2022/10/23 05:35:08;;;;;;;6.20;2.70;;;;;;;14.39;70.65;101034.34;5103893;28;20075;-62
2022/10/23 05:37:38;;;;;;;5.95;2.60;;;;;;;14.39;70.73;101026.25;5112772;28;20126;-62
2022/10/23 05:40:06;;;;;;;3.65;2.25;;;;;;;14.38;70.55;101030.81;5111565;28;20048;-62
2022/10/23 05:42:34;;;;;;;6.97;2.70;;;;;;;14.38;70.77;101019.19;5109015;28;20054;-63
2022/10/23 05:45:08;;;;;;;5.63;2.50;;;;;;;14.38;70.89;101030.81;5103228;28;20054;-62
2022/10/23 05:47:36;;;;;;;5.18;2.40;;;;;;;14.39;70.64;101020.84;5103097;28;20063;-63
2022/10/23 05:50:06;;;;;;;6.75;2.65;;;;;;;14.38;70.78;101021.91;5106656;28;20048;-63
2022/10/23 05:52:33;;;;;;;7.38;2.72;;;;;;;14.36;70.80;101019.44;5105510;28;20048;-62
2022/10/23 05:55:01;;;;;;;6.40;2.65;;;;;;;14.37;70.38;101022.97;5112157;28;20047;-62
2022/10/23 05:57:32;;;;;;;6.75;2.25;;;;;;;14.35;70.45;101012.38;5114370;28;20133;-62
2022/10/23 05:59:59;;;;;;;8.88;2.80;;;;;;;14.34;70.67;101011.56;5102232;28;20056;-62
2022/10/23 06:02:27;;;;;;;4.30;2.25;;;;;;;14.34;70.65;101019.69;4758875;28;9999846;-62
2022/10/23 06:04:55;;;;;;;5.70;2.65;;;;;;;14.33;70.92;101007.22;5115734;28;20051;-62
2022/10/23 06:07:25;;;;;;;3.70;2.58;;;;;;;14.33;70.64;101001.81;4767888;28;10001254;-62
2022/10/23 06:09:55;;;;;;;4.82;2.25;;;;;;;14.33;71.08;100999.09;5102092;28;20375;-62
2022/10/23 06:12:23;;;;;;;6.13;2.58;;;;;;;14.32;70.98;100997.47;5109205;28;20789;-64
2022/10/23 06:14:51;;;;;;;6.47;2.55;;;;;;;14.32;70.56;100993.94;5120454;28;20093;-63
2022/10/23 06:17:19;;;;;;;4.97;2.58;;;;;;;14.31;70.91;101001.22;5118685;28;20132;-63
2022/10/23 06:19:47;;;;;;;11.88;3.42;;;;;;;14.32;70.89;100999.34;5106170;28;20058;-65
2022/10/23 06:22:14;;;;;;;5.25;2.95;;;;;;;14.32;71.03;100997.47;5105225;28;20067;-64
2022/10/23 06:24:43;;;;;;;6.88;2.22;;;;;;;14.31;70.90;100993.13;5107709;28;20044;-63
2022/10/23 06:27:11;;;;;;;6.03;2.25;;;;;;;14.31;70.92;100995.00;5109045;28;20059;-63
2022/10/23 06:29:40;;;;;;;5.57;2.28;;;;;;;14.31;70.81;100989.59;5106693;28;20974;-62
2022/10/23 06:32:08;;;;;;;3.72;2.30;;;;;;;14.31;70.91;100995.00;5110560;28;20086;-63
2022/10/23 06:34:35;;;;;;;3.78;2.08;;;;;;;14.22;70.86;100970.25;5102419;28;20052;-62
2022/10/23 06:37:03;;;;;;;7.90;1.98;;;;;;;14.29;70.74;100979.03;5117696;28;20047;-62
2022/10/23 06:39:31;;;;;;;4.75;2.13;;;;;;;14.29;70.98;100976.31;5103881;28;20055;-65
2022/10/23 06:42:00;;;;;;;11.15;3.65;;;;;;;14.28;70.65;100977.38;5108675;28;20541;-62
2022/10/23 06:44:28;;;;;;;6.45;2.33;;;;;;;14.29;71.06;100968.22;5100958;28;20067;-61
2022/10/23 06:46:55;;;;;;;6.75;2.45;;;;;;;14.30;71.13;100964.44;5108182;28;20044;-63
2022/10/23 06:49:23;;;;;;;12.23;2.70;;;;;;;14.30;70.90;100964.44;5101738;28;20066;-63
2022/10/23 06:51:51;;;;;;;4.45;2.92;;;;;;;14.31;71.02;100962.56;5111215;28;20058;-62
2022/10/23 06:54:18;;;;;;;4.75;2.13;;;;;;;14.31;71.10;100960.69;5112244;28;20054;-62
2022/10/23 06:56:46;;;;;;;5.10;2.35;;;;;;;14.31;71.05;100949.88;5107713;28;20052;-62
2022/10/23 06:59:15;;;;;;;4.68;2.17;;;;;;;14.31;71.15;100949.88;5113368;28;20575;-63
2022/10/23 07:01:43;;;;;;;7.18;2.38;;;;;;;14.31;71.16;100957.16;5104824;28;20062;-63
2022/10/23 07:04:12;;;;;;;7.05;2.33;;;;;;;14.31;71.22;100959.84;5101500;28;20111;-64
2022/10/23 07:06:40;;;;;;;5.43;2.30;;;;;;;14.31;71.40;100960.69;5110374;28;20067;-63
2022/10/23 07:09:08;;;;;;;3.95;2.20;;;;;;;14.30;71.25;100959.03;5105604;28;20048;-64
2022/10/23 07:11:37;;;;;;;3.35;1.85;;;;;;;14.30;71.22;100956.34;5101132;28;20052;-64
2022/10/23 07:14:04;;;;;;;5.13;2.22;;;;;;;14.32;71.07;100956.09;5101350;28;20078;-64
2022/10/23 07:16:34;;;;;;;11.77;2.42;;;;;;;14.31;70.98;100952.56;5109065;28;20161;-64
2022/10/23 07:19:01;;;;;;;8.15;2.60;;;;;;;14.32;71.23;100946.09;5103601;28;20039;-63
2022/10/23 07:21:31;;;;;;;3.22;1.83;;;;;;;14.33;71.16;100946.91;5109110;28;20048;-63
2022/10/23 07:23:59;;;;;;;6.03;2.45;;;;;;;14.32;70.97;100946.09;5106741;28;20432;-64
2022/10/23 07:26:27;;;;;;;4.13;2.10;;;;;;;14.33;71.07;100944.22;5112781;28;20119;-62
2022/10/23 07:28:55;;;;;;;7.75;2.47;;;;;;;14.33;70.83;100950.44;5104456;28;20048;-63
2022/10/23 07:31:24;;;;;;;3.63;2.03;;;;;;;14.33;71.01;100939.63;5117232;28;20058;-64
2022/10/23 07:33:56;;;;;;;6.20;2.50;;;;;;;14.33;70.90;100934.22;5111693;28;20047;-63
2022/10/23 07:36:24;;;;;;;5.07;2.42;;;;;;;14.34;70.92;100933.16;5114281;28;20051;-63
2022/10/23 07:38:51;;;;;;;3.72;1.95;;;;;;;14.35;70.87;100931.28;5108349;28;20052;-62
2022/10/23 07:41:19;;;;;;;9.07;2.20;;;;;;;14.34;71.07;100930.44;5113836;28;20048;-63
2022/10/23 07:43:47;;;;;;;4.28;2.10;;;;;;;14.34;70.96;100932.34;5111367;28;20048;-64
2022/10/23 07:46:15;;;;;;;4.85;1.98;;;;;;;14.35;71.25;100931.28;5114381;28;20052;-64
2022/10/23 07:48:42;;;;;;;3.72;2.00;;;;;;;14.34;70.93;100927.75;5109242;28;20469;-64
2022/10/23 07:51:14;;;;;;;4.57;2.08;;;;;;;14.34;71.04;100922.34;5106785;28;20044;-63
2022/10/23 07:53:42;;;;;;;4.55;1.95;;;;;;;14.33;71.19;100928.00;5108098;28;20044;-62
2022/10/23 07:56:13;;;;;;;4.80;2.20;;;;;;;14.36;71.27;100930.22;5107782;28;20048;-61
2022/10/23 07:58:41;;;;;;;7.15;1.85;;;;;;;14.36;71.20;100932.09;5108555;28;20070;-63
2022/10/23 08:01:17;;;;;;;3.20;1.73;;;;;;;14.37;71.19;100933.72;4755271;28;9999745;-64
2022/10/23 08:03:45;;;;;;;5.05;2.28;;;;;;;14.38;70.95;100938.06;5116957;28;20044;-63
2022/10/23 08:06:14;;;;;;;3.97;2.20;;;;;;;14.37;71.30;100934.56;5115135;28;20057;-63
2022/10/23 08:08:42;;;;;;;5.35;2.10;;;;;;;14.37;71.20;100931.84;5114679;28;20051;-64
2022/10/23 08:11:14;;;;;;;5.95;2.05;;;;;;;14.39;71.42;100931.59;5113089;28;20074;-64
2022/10/23 08:13:43;;;;;;;4.60;2.10;;;;;;;14.39;71.02;100935.13;5108846;28;20143;-63
2022/10/23 08:16:10;;;;;;;3.80;1.70;;;;;;;14.38;71.41;100930.78;5122421;28;20139;-63
2022/10/23 08:18:40;;;;;;;3.60;1.70;;;;;;;14.40;71.22;100927.84;5105451;28;20048;-63
2022/10/23 08:21:08;;;;;;;4.35;2.15;;;;;;;14.40;71.03;100925.13;5114466;28;20051;-62
2022/10/23 08:23:37;;;;;;;4.78;1.88;;;;;;;14.41;71.26;100924.06;5110543;28;20038;-63
2022/10/23 08:26:06;;;;;;;5.70;2.05;;;;;;;14.41;71.36;100913.25;5110559;28;20362;-63
2022/10/23 08:28:34;;;;;;;5.93;2.00;;;;;;;14.41;71.26;100914.06;5112822;28;20345;-63
2022/10/23 08:31:08;;;;;;;5.55;2.13;;;;;;;14.41;71.13;100915.94;5117899;28;20052;-63
2022/10/23 08:33:36;;;;;;;4.53;1.80;;;;;;;14.42;71.11;100906.81;5105778;28;20042;-64
2022/10/23 08:36:04;;;;;;;3.83;2.13;;;;;;;14.42;71.13;100896.00;5107130;28;20135;-63
2022/10/23 08:38:32;;;;;;;3.78;1.50;;;;;;;14.42;71.27;100894.09;5104690;28;20481;-63
2022/10/23 08:41:01;;;;;;;4.35;1.75;;;;;;;14.43;71.35;100894.94;5111872;28;20049;-64
2022/10/23 08:43:37;;;;;;;4.30;1.85;;;;;;;14.43;71.46;100889.53;5104459;28;20044;-63
2022/10/23 08:46:10;;;;;;;2.63;1.75;;;;;;;14.44;71.16;100883.03;5111682;28;20052;-63
2022/10/23 08:48:43;;;;;;;5.55;2.22;;;;;;;14.44;71.37;100889.28;5104723;28;20048;-63
2022/10/23 08:51:16;;;;;;;4.63;2.03;;;;;;;14.44;71.37;100886.56;5114071;28;20063;-63
2022/10/23 08:53:52;;;;;;;4.22;1.98;;;;;;;14.43;71.38;100887.63;5105220;28;20055;-63
2022/10/23 08:56:27;;;;;;;7.30;2.30;;;;;;;14.44;71.33;100883.88;5103528;28;20055;-63
2022/10/23 08:59:00;;;;;;;4.07;1.95;;;;;;;14.46;71.43;100864.69;5104232;28;20051;-63
2022/10/23 09:01:35;;;;;;;3.20;1.80;;;;;;;14.47;71.51;100869.03;5103529;28;20043;-63
2022/10/23 09:04:04;;;;;;;4.25;2.05;;;;;;;14.45;71.69;100863.88;5106158;28;20067;-64
2022/10/23 09:06:39;;;;;;;7.20;1.77;;;;;;;14.45;71.46;100866.56;5114490;28;20060;-63
2022/10/23 09:09:22;;;;;;;5.57;1.80;;;;;;;14.47;71.67;100855.50;5103954;28;20056;-63
2022/10/23 09:12:02;;;;;;;5.63;2.17;;;;;;;14.47;71.71;100848.22;5103209;28;20060;-64
2022/10/23 09:14:50;;;;;;;8.90;1.90;;;;;;;14.48;71.72;100860.66;5102744;28;20048;-64
2022/10/23 09:17:24;;;;;;;3.67;1.92;;;;;;;14.49;71.79;100854.19;5110682;28;20082;-63
2022/10/23 09:19:59;;;;;;;4.28;1.90;;;;;;;14.49;71.51;100850.69;5109051;28;20059;-63
2022/10/23 09:22:27;;;;;;;4.25;2.03;;;;;;;14.51;71.53;100843.13;5121455;28;20048;-62
2022/10/23 09:24:55;;;;;;;4.70;1.95;;;;;;;14.52;71.32;100836.66;5116106;28;20044;-62
2022/10/23 09:27:24;;;;;;;7.47;1.90;;;;;;;14.51;71.58;100835.84;5106390;28;20071;-63
2022/10/23 09:29:55;;;;;;;3.47;1.80;;;;;;;14.50;71.51;100825.28;5106850;28;20413;-62
2022/10/23 09:32:33;;;;;;;4.65;2.00;;;;;;;14.56;71.74;100816.16;5107408;28;20480;-63
2022/10/23 09:35:00;;;;;;;5.40;2.00;;;;;;;14.56;71.62;100813.47;5106513;28;20059;-61
2022/10/23 09:37:30;;;;;;;5.85;2.45;;;;;;;14.56;71.64;100808.88;5115706;28;20044;-63
2022/10/23 09:40:15;;;;;;;3.17;1.80;;;;;;;14.56;71.88;100803.47;5106672;28;20051;-63
2022/10/23 09:42:59;;;;;;;6.95;1.85;;;;;;;14.60;71.82;100806.47;5105999;28;20048;-63
2022/10/23 09:45:30;;;;;;;6.85;2.58;;;;;;;14.58;71.77;100808.63;5107466;28;20048;-63
2022/10/23 09:48:13;;;;;;;7.60;2.35;;;;;;;14.59;71.75;100811.06;5106327;28;20048;-63
2022/10/23 09:50:49;;;;;;;3.35;1.70;;;;;;;14.60;71.96;100812.72;5105872;28;20049;-63
2022/10/23 09:53:22;;;;;;;8.93;2.10;;;;;;;14.58;71.76;100801.31;5108258;28;20058;-63
2022/10/23 09:55:54;;;;;;;2.95;2.10;;;;;;;14.61;71.73;100803.53;5111412;28;20044;-63
2022/10/23 09:58:30;;;;;;;7.88;1.98;;;;;;;14.62;71.92;100802.47;5110472;28;20071;-62
2022/10/23 10:00:58;;;;;;;3.53;1.70;;;;;;;14.63;72.07;100795.16;5106885;28;20059;-64
2022/10/23 10:03:26;;;;;;;4.40;2.20;;;;;;;14.61;71.82;100778.38;5098246;28;20059;-63
2022/10/23 10:05:56;;;;;;;5.13;1.98;;;;;;;14.64;71.78;100778.69;5117449;28;20046;-64
2022/10/23 10:08:31;;;;;;;3.67;1.50;;;;;;;14.65;71.66;100774.91;5115214;28;20044;-65
2022/10/23 10:11:04;;;;;;;3.70;2.42;;;;;;;14.67;71.69;100769.25;5112881;28;20052;-64
2022/10/23 10:13:51;;;;;;;5.88;2.05;;;;;;;14.67;71.68;100760.31;5110064;28;20048;-64
2022/10/23 10:16:30;;;;;;;3.72;2.00;;;;;;;14.67;71.70;100752.19;5105526;28;20740;-63
2022/10/23 10:19:06;;;;;;;3.20;1.95;;;;;;;14.68;71.75;100748.44;5117671;28;20054;-63
2022/10/23 10:21:40;;;;;;;3.53;1.95;;;;;;;14.69;71.69;100748.19;5112951;28;20044;-62
2022/10/23 10:24:16;;;;;;;5.28;1.90;;;;;;;14.69;71.73;100747.34;5105230;28;20048;-62
2022/10/23 10:26:52;;;;;;;4.38;2.03;;;;;;;14.69;72.01;100752.78;5107179;28;20051;-63
2022/10/23 10:29:36;;;;;;;4.00;1.60;;;;;;;14.70;72.05;100762.53;5119713;28;20052;-63
2022/10/23 10:32:16;;;;;;;4.70;2.05;;;;;;;14.70;72.00;100763.34;5110570;28;20047;-63
2022/10/23 10:34:53;;;;;;;6.75;2.03;;;;;;;14.72;71.91;100758.50;5108588;28;20052;-64
2022/10/23 10:37:34;;;;;;;6.75;2.25;;;;;;;14.73;72.38;100749.31;5112488;28;20054;-62
2022/10/23 10:40:13;;;;;;;4.97;1.83;;;;;;;14.73;72.12;100737.66;5105591;28;20048;-61
2022/10/23 10:42:57;;;;;;;3.78;2.08;;;;;;;14.73;72.18;100733.06;5110759;28;20048;-64
2022/10/23 10:45:32;;;;;;;4.95;1.65;;;;;;;14.72;72.31;100723.34;5109203;28;20116;-61
2022/10/23 10:48:25;;;;;;;6.35;2.30;;;;;;;14.75;72.30;100719.31;5118444;28;20040;-64
2022/10/23 10:50:57;;;;;;;5.45;1.85;;;;;;;14.75;72.17;100727.41;5107310;28;20052;-62
2022/10/23 10:53:31;;;;;;;7.22;2.55;;;;;;;14.78;72.29;100713.38;5111890;28;20051;-65
2022/10/23 10:56:02;;;;;;;4.72;2.17;;;;;;;14.75;72.09;100684.94;5110185;28;20401;-64
2022/10/23 10:58:38;;;;;;;4.43;2.25;;;;;;;14.81;72.22;100702.06;5113128;28;20070;-61
2022/10/23 11:01:15;;;;;;;7.67;2.63;;;;;;;14.83;72.13;100706.16;5109458;28;20050;-62
2022/10/23 11:03:48;;;;;;;5.10;2.13;;;;;;;14.83;72.18;100702.63;5107745;28;20051;-62
2022/10/23 11:06:20;;;;;;;10.77;2.10;;;;;;;14.86;72.08;100704.81;5105922;28;20493;-63
2022/10/23 11:08:48;;;;;;;7.15;2.17;;;;;;;14.85;72.41;100700.47;5104716;28;20056;-62
2022/10/23 11:11:35;;;;;;;5.22;2.20;;;;;;;14.88;72.25;100713.50;5104220;28;20050;-62
2022/10/23 11:14:03;;;;;;;6.57;2.00;;;;;;;14.89;72.43;100713.25;5116022;28;20044;-62
2022/10/23 11:16:37;;;;;;;4.40;1.92;;;;;;;14.89;72.49;100715.97;5126641;28;20046;-62
2022/10/23 11:19:11;;;;;;;4.22;2.10;;;;;;;14.91;72.55;100710.28;5118234;27;20359;-61
2022/10/23 11:21:44;;;;;;;3.67;1.90;;;;;;;14.92;72.44;100698.41;4761223;27;10000640;-61
2022/10/23 11:24:47;;;;;;;6.43;2.33;;;;;;;14.93;72.49;100698.13;5112531;28;20138;-62
2022/10/23 11:27:35;;;;;;;4.35;1.80;;;;;;;14.95;72.41;100692.47;5110387;28;20050;-61
2022/10/23 11:30:23;;;;;;;8.10;2.25;;;;;;;14.95;72.96;100673.53;5110608;28;20055;-62
2022/10/23 11:33:08;;;;;;;3.83;2.17;;;;;;;14.98;72.74;100667.59;5115523;28;20059;-62
2022/10/23 11:35:57;;;;;;;4.43;2.72;;;;;;;15.00;72.60;100667.34;5118032;28;20044;-62
2022/10/23 11:38:28;;;;;;;5.30;2.00;;;;;;;15.04;72.63;100652.25;5114716;28;20062;-62
2022/10/23 11:41:01;;;;;;;7.88;2.10;;;;;;;15.04;72.52;100655.75;5110399;28;20048;-62
2022/10/23 11:43:32;;;;;;;5.70;2.03;;;;;;;15.05;72.71;100651.97;5113199;28;20186;-61